createdAt,value
2018-09-13T00:00:31.711Z,0.00
2018-09-13T00:01:31.711Z,0.00
2018-09-13T00:02:31.707Z,0.00
2018-09-13T00:03:31.710Z,0.00
2018-09-13T00:04:31.706Z,0.00
2018-09-13T00:05:31.703Z,0.00
2018-09-13T00:06:31.705Z,0.00
2018-09-13T00:07:31.703Z,0.00
2018-09-13T00:08:31.704Z,0.00
2018-09-13T00:09:31.701Z,0.00
2018-09-13T00:10:31.703Z,0.00
2018-09-13T00:11:31.698Z,0.00
2018-09-13T00:12:31.698Z,0.00
2018-09-13T00:13:31.701Z,0.00
2018-09-13T00:14:31.698Z,0.00
2018-09-13T00:15:31.696Z,0.00
2018-09-13T00:16:31.696Z,0.00
2018-09-13T00:17:31.694Z,0.00
2018-09-13T00:18:31.692Z,0.00
2018-09-13T00:19:31.690Z,0.00
2018-09-13T00:20:31.690Z,0.00
2018-09-13T00:21:31.689Z,0.00
2018-09-13T00:22:31.688Z,0.00
2018-09-13T00:23:31.687Z,0.00
2018-09-13T00:24:31.688Z,0.00
2018-09-13T00:25:31.686Z,0.00
2018-09-13T00:26:31.685Z,0.00
2018-09-13T00:27:31.682Z,0.00
2018-09-13T00:28:31.682Z,0.00
2018-09-13T00:29:32.437Z,0.00
2018-09-13T00:30:31.681Z,0.00
2018-09-13T00:31:31.684Z,0.00
2018-09-13T00:32:31.679Z,0.00
2018-09-13T00:33:31.685Z,0.00
2018-09-13T00:34:31.678Z,0.00
2018-09-13T00:35:31.675Z,0.00
2018-09-13T00:36:31.673Z,0.00
2018-09-13T00:37:31.673Z,0.00
2018-09-13T00:38:31.673Z,0.00
2018-09-13T00:39:31.669Z,0.00
2018-09-13T00:40:31.670Z,0.00
2018-09-13T00:41:31.671Z,0.00
2018-09-13T00:42:31.668Z,0.00
2018-09-13T00:43:31.669Z,0.00
2018-09-13T00:44:31.667Z,0.00
2018-09-13T00:45:31.664Z,0.00
2018-09-13T00:46:31.664Z,0.00
2018-09-13T00:47:31.665Z,0.00
2018-09-13T00:48:31.661Z,0.00
2018-09-13T00:49:31.663Z,0.00
2018-09-13T00:50:31.658Z,0.00
2018-09-13T00:51:31.658Z,0.00
2018-09-13T00:52:31.659Z,0.00
2018-09-13T00:53:31.657Z,0.00
2018-09-13T00:54:31.656Z,0.00
2018-09-13T00:55:31.652Z,0.00
2018-09-13T00:56:31.651Z,0.00
2018-09-13T00:57:31.650Z,0.00
2018-09-13T00:58:31.651Z,0.00
2018-09-13T00:59:31.649Z,0.00
2018-09-13T01:00:31.647Z,0.00
2018-09-13T01:01:31.648Z,0.00
2018-09-13T01:02:31.648Z,0.00
2018-09-13T01:03:31.643Z,0.00
2018-09-13T01:04:31.642Z,0.00
2018-09-13T01:05:31.642Z,0.00
2018-09-13T01:06:31.642Z,0.00
2018-09-13T01:07:31.638Z,0.00
2018-09-13T01:08:31.640Z,0.00
2018-09-13T01:09:31.636Z,0.00
2018-09-13T01:10:31.636Z,0.00
2018-09-13T01:11:31.634Z,0.00
2018-09-13T01:12:31.634Z,0.00
2018-09-13T01:13:31.633Z,0.00
2018-09-13T01:14:31.631Z,0.00
2018-09-13T01:15:31.630Z,0.00
2018-09-13T01:16:31.630Z,0.00
2018-09-13T01:17:31.628Z,0.00
2018-09-13T01:18:31.628Z,0.00
2018-09-13T01:19:31.629Z,0.00
2018-09-13T01:20:31.624Z,0.00
2018-09-13T01:21:31.621Z,0.00
2018-09-13T01:22:31.626Z,0.00
2018-09-13T01:23:31.619Z,0.00
2018-09-13T01:24:31.620Z,0.00
2018-09-13T01:25:31.622Z,0.00
2018-09-13T01:26:31.619Z,0.00
2018-09-13T01:27:31.618Z,0.00
2018-09-13T01:28:31.617Z,0.00
2018-09-13T01:29:31.614Z,0.00
2018-09-13T01:30:31.614Z,0.00
2018-09-13T01:31:31.615Z,0.00
2018-09-13T01:32:31.610Z,0.00
2018-09-13T01:33:31.610Z,0.00
2018-09-13T01:34:31.610Z,0.00
2018-09-13T01:35:31.607Z,0.00
2018-09-13T01:36:31.607Z,0.00
2018-09-13T01:37:31.605Z,0.00
2018-09-13T01:38:31.606Z,0.00
2018-09-13T01:39:31.606Z,0.00
2018-09-13T01:40:31.603Z,0.00
2018-09-13T01:41:31.601Z,0.00
2018-09-13T01:42:31.599Z,0.00
2018-09-13T01:43:31.599Z,0.00
2018-09-13T01:44:31.597Z,0.00
2018-09-13T01:45:31.597Z,0.00
2018-09-13T01:46:31.594Z,0.00
2018-09-13T01:47:31.601Z,0.00
2018-09-13T01:48:31.595Z,0.00
2018-09-13T01:49:31.590Z,0.00
2018-09-13T01:50:31.591Z,0.00
2018-09-13T01:51:31.589Z,0.00
2018-09-13T01:52:31.587Z,0.00
2018-09-13T01:53:31.587Z,0.00
2018-09-13T01:54:31.584Z,0.00
2018-09-13T01:55:31.585Z,0.00
2018-09-13T01:56:31.582Z,0.00
2018-09-13T01:57:31.582Z,0.00
2018-09-13T01:58:31.584Z,0.00
2018-09-13T01:59:31.579Z,0.00
2018-09-13T02:00:31.580Z,0.00
2018-09-13T02:01:31.585Z,0.00
2018-09-13T02:02:31.576Z,0.00
2018-09-13T02:03:31.574Z,0.00
2018-09-13T02:04:31.573Z,0.00
2018-09-13T02:05:31.572Z,0.00
2018-09-13T02:06:31.571Z,0.00
2018-09-13T02:07:31.569Z,0.00
2018-09-13T02:08:31.572Z,0.00
2018-09-13T02:09:31.566Z,0.00
2018-09-13T02:10:31.569Z,0.00
2018-09-13T02:11:31.564Z,0.00
2018-09-13T02:12:31.567Z,0.00
2018-09-13T02:13:31.562Z,0.00
2018-09-13T02:14:32.466Z,0.00
2018-09-13T02:15:31.558Z,0.00
2018-09-13T02:16:31.556Z,0.00
2018-09-13T02:17:31.557Z,0.00
2018-09-13T02:18:31.558Z,0.00
2018-09-13T02:19:31.553Z,0.00
2018-09-13T02:20:31.552Z,0.00
2018-09-13T02:21:31.551Z,0.00
2018-09-13T02:22:31.549Z,0.00
2018-09-13T02:23:31.548Z,0.00
2018-09-13T02:24:31.547Z,0.00
2018-09-13T02:25:31.550Z,0.00
2018-09-13T02:26:31.543Z,0.00
2018-09-13T02:27:31.541Z,0.00
2018-09-13T02:28:31.542Z,0.00
2018-09-13T02:29:31.537Z,0.00
2018-09-13T02:30:31.541Z,0.00
2018-09-13T02:31:31.538Z,0.00
2018-09-13T02:32:31.536Z,0.00
2018-09-13T02:33:31.536Z,0.00
2018-09-13T02:34:31.536Z,0.00
2018-09-13T02:35:31.530Z,0.00
2018-09-13T02:36:31.534Z,0.00
2018-09-13T02:37:31.529Z,0.00
2018-09-13T02:38:31.528Z,0.00
2018-09-13T02:39:31.525Z,0.00
2018-09-13T02:40:31.522Z,0.00
2018-09-13T02:41:31.519Z,0.00
2018-09-13T02:42:31.518Z,0.00
2018-09-13T02:43:31.519Z,0.00
2018-09-13T02:44:31.518Z,0.00
2018-09-13T02:45:31.516Z,0.00
2018-09-13T02:46:31.516Z,0.00
2018-09-13T02:47:31.552Z,0.00
2018-09-13T02:48:31.513Z,0.00
2018-09-13T02:49:31.515Z,0.00
2018-09-13T02:50:31.510Z,0.00
2018-09-13T02:51:31.509Z,0.00
2018-09-13T02:52:31.506Z,0.00
2018-09-13T02:53:31.504Z,0.00
2018-09-13T02:54:31.501Z,0.00
2018-09-13T02:55:31.504Z,0.00
2018-09-13T02:56:31.499Z,0.00
2018-09-13T02:57:31.499Z,0.00
2018-09-13T02:58:31.496Z,0.00
2018-09-13T02:59:31.494Z,0.00
2018-09-13T03:00:31.495Z,0.00
2018-09-13T03:01:31.491Z,0.00
2018-09-13T03:02:31.489Z,0.00
2018-09-13T03:03:31.983Z,0.00
2018-09-13T03:04:31.488Z,0.00
2018-09-13T03:05:31.489Z,0.00
2018-09-13T03:06:31.481Z,0.00
2018-09-13T03:07:31.484Z,0.00
2018-09-13T03:08:31.481Z,0.00
2018-09-13T03:09:31.477Z,0.00
2018-09-13T03:10:31.481Z,0.00
2018-09-13T03:11:31.475Z,0.00
2018-09-13T03:12:31.472Z,0.00
2018-09-13T03:13:31.470Z,0.00
2018-09-13T03:14:31.470Z,0.00
2018-09-13T03:15:31.465Z,0.00
2018-09-13T03:16:31.465Z,0.00
2018-09-13T03:17:31.466Z,0.00
2018-09-13T03:18:31.461Z,0.00
2018-09-13T03:19:31.464Z,0.00
2018-09-13T03:20:31.461Z,0.00
2018-09-13T03:21:31.462Z,0.00
2018-09-13T03:22:31.456Z,0.00
2018-09-13T03:23:31.459Z,0.00
2018-09-13T03:24:31.452Z,0.00
2018-09-13T03:25:31.450Z,0.00
2018-09-13T03:26:31.449Z,0.00
2018-09-13T03:27:31.447Z,0.00
2018-09-13T03:28:31.444Z,0.00
2018-09-13T03:29:31.442Z,0.00
2018-09-13T03:30:31.443Z,0.00
2018-09-13T03:31:31.439Z,0.00
2018-09-13T03:32:31.440Z,0.00
2018-09-13T03:33:31.442Z,0.00
2018-09-13T03:34:31.433Z,0.00
2018-09-13T03:35:31.436Z,0.00
2018-09-13T03:36:31.432Z,0.00
2018-09-13T03:37:31.431Z,0.00
2018-09-13T03:38:31.427Z,0.00
2018-09-13T03:39:31.448Z,0.00
2018-09-13T03:40:31.422Z,0.00
2018-09-13T03:41:31.419Z,0.00
2018-09-13T03:42:31.433Z,0.00
2018-09-13T03:43:31.415Z,0.00
2018-09-13T03:44:31.414Z,0.00
2018-09-13T03:45:31.415Z,0.00
2018-09-13T03:46:31.415Z,0.00
2018-09-13T03:47:31.408Z,0.00
2018-09-13T03:48:31.405Z,0.00
2018-09-13T03:49:31.408Z,0.00
2018-09-13T03:50:31.404Z,0.00
2018-09-13T03:51:31.402Z,0.00
2018-09-13T03:52:31.399Z,0.00
2018-09-13T03:53:31.395Z,0.00
2018-09-13T03:54:31.392Z,0.00
2018-09-13T03:55:31.393Z,0.00
2018-09-13T03:56:31.388Z,0.00
2018-09-13T03:57:31.385Z,0.00
2018-09-13T03:58:31.385Z,0.00
2018-09-13T03:59:31.382Z,0.00
2018-09-13T04:00:31.379Z,0.00
2018-09-13T04:01:31.378Z,0.00
2018-09-13T04:02:31.375Z,0.00
2018-09-13T04:03:31.451Z,0.00
2018-09-13T04:04:31.997Z,0.00
2018-09-13T04:05:31.369Z,0.00
2018-09-13T04:06:31.370Z,0.00
2018-09-13T04:07:31.363Z,0.00
2018-09-13T04:08:31.363Z,0.00
2018-09-13T04:09:31.366Z,0.00
2018-09-13T04:10:31.362Z,0.00
2018-09-13T04:11:31.352Z,0.00
2018-09-13T04:12:31.355Z,0.00
2018-09-13T04:13:31.351Z,0.00
2018-09-13T04:14:31.352Z,4.00
2018-09-13T04:15:31.345Z,4.00
2018-09-13T04:16:31.347Z,0.00
2018-09-13T04:17:31.342Z,4.00
2018-09-13T04:18:32.005Z,4.00
2018-09-13T04:19:31.339Z,4.00
2018-09-13T04:20:31.338Z,4.00
2018-09-13T04:21:31.334Z,4.00
2018-09-13T04:22:31.348Z,8.00
2018-09-13T04:23:31.328Z,4.00
2018-09-13T04:24:31.326Z,8.00
2018-09-13T04:25:32.007Z,12.00
2018-09-13T04:26:31.324Z,12.00
2018-09-13T04:27:31.321Z,12.00
2018-09-13T04:28:31.321Z,12.00
2018-09-13T04:29:31.316Z,12.00
2018-09-13T04:30:31.316Z,16.00
2018-09-13T04:31:31.311Z,20.00
2018-09-13T04:32:31.312Z,20.00
2018-09-13T04:33:31.305Z,28.00
2018-09-13T04:34:31.306Z,28.00
2018-09-13T04:35:31.348Z,32.00
2018-09-13T04:36:31.298Z,36.00
2018-09-13T04:37:31.297Z,36.00
2018-09-13T04:38:31.297Z,40.00
2018-09-13T04:39:31.288Z,44.00
2018-09-13T04:40:31.291Z,48.00
2018-09-13T04:41:31.288Z,52.00
2018-09-13T04:42:31.284Z,52.00
2018-09-13T04:43:31.283Z,56.00
2018-09-13T04:44:31.283Z,60.00
2018-09-13T04:45:31.277Z,68.00
2018-09-13T04:46:31.279Z,76.00
2018-09-13T04:47:31.275Z,84.00
2018-09-13T04:48:31.272Z,92.00
2018-09-13T04:49:31.269Z,96.00
2018-09-13T04:50:31.267Z,104.00
2018-09-13T04:51:31.264Z,120.00
2018-09-13T04:52:31.259Z,136.00
2018-09-13T04:53:31.259Z,156.00
2018-09-13T04:54:31.255Z,172.00
2018-09-13T04:55:31.253Z,180.00
2018-09-13T04:56:31.251Z,184.00
2018-09-13T04:57:31.248Z,188.00
2018-09-13T04:58:31.246Z,188.00
2018-09-13T04:59:31.243Z,184.00
2018-09-13T05:00:31.241Z,184.00
2018-09-13T05:01:31.240Z,180.00
2018-09-13T05:02:31.236Z,180.00
2018-09-13T05:03:31.233Z,188.00
2018-09-13T05:04:31.231Z,196.00
2018-09-13T05:05:31.227Z,204.00
2018-09-13T05:06:31.272Z,212.00
2018-09-13T05:07:31.223Z,228.00
2018-09-13T05:08:31.220Z,240.00
2018-09-13T05:09:31.218Z,244.00
2018-09-13T05:10:31.216Z,244.00
2018-09-13T05:11:31.212Z,248.00
2018-09-13T05:12:31.211Z,248.00
2018-09-13T05:13:31.212Z,256.00
2018-09-13T05:14:31.205Z,264.00
2018-09-13T05:15:31.203Z,280.00
2018-09-13T05:16:31.200Z,304.00
2018-09-13T05:17:31.197Z,332.00
2018-09-13T05:18:31.196Z,368.00
2018-09-13T05:19:31.191Z,408.00
2018-09-13T05:20:31.191Z,448.00
2018-09-13T05:21:31.188Z,472.00
2018-09-13T05:22:31.186Z,476.00
2018-09-13T05:23:31.184Z,484.00
2018-09-13T05:24:31.242Z,496.00
2018-09-13T05:25:31.178Z,512.00
2018-09-13T05:26:31.176Z,516.00
2018-09-13T05:27:31.173Z,512.00
2018-09-13T05:28:31.172Z,508.00
2018-09-13T05:29:31.170Z,524.00
2018-09-13T05:30:31.169Z,540.00
2018-09-13T05:31:31.197Z,548.00
2018-09-13T05:32:31.160Z,552.00
2018-09-13T05:33:31.164Z,560.00
2018-09-13T05:34:31.157Z,580.00
2018-09-13T05:35:31.151Z,600.00
2018-09-13T05:36:31.152Z,612.00
2018-09-13T05:37:31.148Z,628.00
2018-09-13T05:38:31.147Z,644.00
2018-09-13T05:39:31.145Z,656.00
2018-09-13T05:40:31.142Z,660.00
2018-09-13T05:41:31.137Z,660.00
2018-09-13T05:42:31.134Z,652.00
2018-09-13T05:43:31.135Z,648.00
2018-09-13T05:44:31.160Z,648.00
2018-09-13T05:45:31.129Z,656.00
2018-09-13T05:46:31.143Z,684.00
2018-09-13T05:47:31.122Z,720.00
2018-09-13T05:48:31.121Z,780.00
2018-09-13T05:49:31.118Z,848.00
2018-09-13T05:50:31.120Z,928.00
2018-09-13T05:51:31.115Z,1024.00
2018-09-13T05:52:31.114Z,1080.00
2018-09-13T05:53:31.107Z,1132.00
2018-09-13T05:54:31.105Z,1116.00
2018-09-13T05:55:31.106Z,1096.00
2018-09-13T05:56:31.100Z,1088.00
2018-09-13T05:57:31.097Z,1076.00
2018-09-13T05:58:31.094Z,1088.00
2018-09-13T05:59:31.097Z,1112.00
2018-09-13T06:00:31.101Z,1168.00
2018-09-13T06:01:31.086Z,1204.00
2018-09-13T06:02:31.085Z,1276.00
2018-09-13T06:03:31.081Z,1332.00
2018-09-13T06:04:31.081Z,1412.00
2018-09-13T06:05:31.097Z,1496.00
2018-09-13T06:06:31.073Z,1516.00
2018-09-13T06:07:31.071Z,1564.00
2018-09-13T06:08:31.070Z,1668.00
2018-09-13T06:09:31.064Z,1800.00
2018-09-13T06:10:31.064Z,1940.00
2018-09-13T06:11:31.058Z,2088.00
2018-09-13T06:12:31.059Z,2168.00
2018-09-13T06:13:31.060Z,2044.00
2018-09-13T06:14:31.054Z,1840.00
2018-09-13T06:15:31.046Z,1828.00
2018-09-13T06:16:31.044Z,2120.00
2018-09-13T06:17:31.041Z,2492.00
2018-09-13T06:18:31.040Z,2672.00
2018-09-13T06:19:31.037Z,2696.00
2018-09-13T06:20:31.038Z,2672.00
2018-09-13T06:21:31.033Z,2632.00
2018-09-13T06:22:31.032Z,2524.00
2018-09-13T06:23:31.027Z,2448.00
2018-09-13T06:24:31.024Z,2468.00
2018-09-13T06:25:31.024Z,2596.00
2018-09-13T06:26:31.019Z,2468.00
2018-09-13T06:27:31.015Z,2232.00
2018-09-13T06:28:31.012Z,2132.00
2018-09-13T06:29:31.056Z,2232.00
2018-09-13T06:30:31.007Z,2500.00
2018-09-13T06:31:31.003Z,2680.00
2018-09-13T06:32:30.999Z,2688.00
2018-09-13T06:33:31.003Z,2640.00
2018-09-13T06:34:30.998Z,2768.00
2018-09-13T06:35:30.994Z,2892.00
2018-09-13T06:36:31.024Z,2800.00
2018-09-13T06:37:30.989Z,2648.00
2018-09-13T06:38:30.988Z,2628.00
2018-09-13T06:39:30.983Z,2740.00
2018-09-13T06:40:30.982Z,2888.00
2018-09-13T06:41:30.977Z,2888.00
2018-09-13T06:42:31.086Z,2632.00
2018-09-13T06:43:30.975Z,2428.00
2018-09-13T06:44:30.970Z,2396.00
2018-09-13T06:45:30.973Z,2408.00
2018-09-13T06:46:30.967Z,2480.00
2018-09-13T06:47:30.961Z,2612.00
2018-09-13T06:48:31.549Z,2700.00
2018-09-13T06:49:30.959Z,2664.00
2018-09-13T06:50:30.953Z,2596.00
2018-09-13T06:51:30.955Z,2616.00
2018-09-13T06:52:30.950Z,2716.00
2018-09-13T06:53:30.946Z,2744.00
2018-09-13T06:54:30.947Z,2644.00
2018-09-13T06:55:30.940Z,2452.00
2018-09-13T06:56:30.938Z,2252.00
2018-09-13T06:57:30.940Z,2084.00
2018-09-13T06:58:30.941Z,1972.00
2018-09-13T06:59:30.941Z,1924.00
2018-09-13T07:00:30.964Z,1900.00
2018-09-13T07:01:31.280Z,1904.00
2018-09-13T07:02:30.940Z,1900.00
2018-09-13T07:03:30.923Z,1868.00
2018-09-13T07:04:30.929Z,1864.00
2018-09-13T07:05:30.918Z,1856.00
2018-09-13T07:06:31.148Z,1808.00
2018-09-13T07:07:30.913Z,1724.00
2018-09-13T07:08:30.911Z,1672.00
2018-09-13T07:09:30.909Z,1692.00
2018-09-13T07:10:31.272Z,1696.00
2018-09-13T07:11:30.904Z,1644.00
2018-09-13T07:12:30.908Z,1604.00
2018-09-13T07:13:30.903Z,1632.00
2018-09-13T07:14:30.897Z,1704.00
2018-09-13T07:15:30.893Z,1772.00
2018-09-13T07:16:30.892Z,1804.00
2018-09-13T07:17:30.890Z,1856.00
2018-09-13T07:18:30.887Z,1940.00
2018-09-13T07:19:30.886Z,1960.00
2018-09-13T07:20:30.881Z,1864.00
2018-09-13T07:21:30.881Z,1764.00
2018-09-13T07:22:30.878Z,1724.00
2018-09-13T07:23:30.889Z,1776.00
2018-09-13T07:24:30.875Z,1916.00
2018-09-13T07:25:30.870Z,2000.00
2018-09-13T07:26:30.868Z,1960.00
2018-09-13T07:27:30.864Z,1948.00
2018-09-13T07:28:30.863Z,2108.00
2018-09-13T07:29:30.863Z,2344.00
2018-09-13T07:30:30.863Z,2516.00
2018-09-13T07:31:31.002Z,2536.00
2018-09-13T07:32:30.856Z,2320.00
2018-09-13T07:33:30.850Z,2100.00
2018-09-13T07:34:30.849Z,2044.00
2018-09-13T07:35:30.845Z,2124.00
2018-09-13T07:36:30.844Z,2168.00
2018-09-13T07:37:30.841Z,2128.00
2018-09-13T07:38:30.838Z,2080.00
2018-09-13T07:39:30.835Z,2176.00
2018-09-13T07:40:30.834Z,2472.00
2018-09-13T07:41:30.830Z,2760.00
2018-09-13T07:42:30.906Z,2904.00
2018-09-13T07:43:30.827Z,2780.00
2018-09-13T07:44:30.824Z,2436.00
2018-09-13T07:45:30.895Z,2268.00
2018-09-13T07:46:30.821Z,2328.00
2018-09-13T07:47:30.819Z,2452.00
2018-09-13T07:48:30.816Z,2564.00
2018-09-13T07:49:30.881Z,2620.00
2018-09-13T07:50:30.811Z,2636.00
2018-09-13T07:51:30.808Z,2672.00
2018-09-13T07:52:30.808Z,2736.00
2018-09-13T07:53:30.802Z,2780.00
2018-09-13T07:54:30.799Z,2824.00
2018-09-13T07:55:30.797Z,2956.00
2018-09-13T07:56:30.895Z,3100.00
2018-09-13T07:57:30.792Z,3184.00
2018-09-13T07:58:30.788Z,3220.00
2018-09-13T07:59:30.790Z,3316.00
2018-09-13T08:00:30.784Z,3468.00
2018-09-13T08:01:30.782Z,3584.00
2018-09-13T08:02:30.780Z,3568.00
2018-09-13T08:03:30.774Z,3500.00
2018-09-13T08:04:30.773Z,3632.00
2018-09-13T08:05:30.774Z,3868.00
2018-09-13T08:06:30.768Z,4064.00
2018-09-13T08:07:30.763Z,4172.00
2018-09-13T08:08:30.763Z,4360.00
2018-09-13T08:09:30.760Z,4584.00
2018-09-13T08:10:30.757Z,4684.00
2018-09-13T08:11:30.757Z,4548.00
2018-09-13T08:12:30.751Z,4248.00
2018-09-13T08:13:30.751Z,4028.00
2018-09-13T08:14:30.749Z,4048.00
2018-09-13T08:15:30.745Z,4120.00
2018-09-13T08:16:30.744Z,3968.00
2018-09-13T08:17:30.744Z,3732.00
2018-09-13T08:18:30.739Z,3684.00
2018-09-13T08:19:30.735Z,3712.00
2018-09-13T08:20:30.732Z,3624.00
2018-09-13T08:21:30.779Z,3448.00
2018-09-13T08:22:30.729Z,3264.00
2018-09-13T08:23:30.724Z,3100.00
2018-09-13T08:24:30.731Z,2896.00
2018-09-13T08:25:30.725Z,2872.00
2018-09-13T08:26:30.718Z,3040.00
2018-09-13T08:27:30.715Z,3104.00
2018-09-13T08:28:30.712Z,3080.00
2018-09-13T08:29:30.711Z,3192.00
2018-09-13T08:30:30.712Z,3200.00
2018-09-13T08:31:30.707Z,2976.00
2018-09-13T08:32:30.704Z,2912.00
2018-09-13T08:33:30.754Z,3096.00
2018-09-13T08:34:30.726Z,3260.00
2018-09-13T08:35:31.571Z,3264.00
2018-09-13T08:36:30.694Z,3220.00
2018-09-13T08:37:30.692Z,3396.00
2018-09-13T08:38:31.572Z,3616.00
2018-09-13T08:39:30.687Z,3772.00
2018-09-13T08:40:30.685Z,3888.00
2018-09-13T08:41:30.680Z,3960.00
2018-09-13T08:42:32.577Z,3896.00
2018-09-13T08:43:30.675Z,3716.00
2018-09-13T08:44:30.675Z,3544.00
2018-09-13T08:45:30.671Z,3516.00
2018-09-13T08:46:30.669Z,3692.00
2018-09-13T08:47:30.699Z,4108.00
2018-09-13T08:48:30.669Z,4512.00
2018-09-13T08:49:30.663Z,4704.00
2018-09-13T08:50:30.660Z,4712.00
2018-09-13T08:51:30.657Z,4604.00
2018-09-13T08:52:30.653Z,4436.00
2018-09-13T08:53:30.652Z,4388.00
2018-09-13T08:54:30.650Z,4504.00
2018-09-13T08:55:30.647Z,4612.00
2018-09-13T08:56:30.647Z,4584.00
2018-09-13T08:57:30.643Z,4392.00
2018-09-13T08:58:30.642Z,4276.00
2018-09-13T08:59:30.637Z,4272.00
2018-09-13T09:00:30.692Z,4328.00
2018-09-13T09:01:30.633Z,4320.00
2018-09-13T09:02:30.629Z,4124.00
2018-09-13T09:03:30.625Z,3844.00
2018-09-13T09:04:30.641Z,3560.00
2018-09-13T09:05:30.622Z,3444.00
2018-09-13T09:06:30.647Z,3568.00
2018-09-13T09:07:31.580Z,3736.00
2018-09-13T09:08:30.615Z,3844.00
2018-09-13T09:09:30.609Z,3944.00
2018-09-13T09:10:30.679Z,4072.00
2018-09-13T09:11:30.609Z,4240.00
2018-09-13T09:12:30.605Z,4496.00
2018-09-13T09:13:30.607Z,4828.00
2018-09-13T09:14:30.603Z,5124.00
2018-09-13T09:15:30.606Z,5312.00
2018-09-13T09:16:30.598Z,5424.00
2018-09-13T09:17:30.593Z,5388.00
2018-09-13T09:18:30.626Z,5280.00
2018-09-13T09:19:30.588Z,5200.00
2018-09-13T09:20:30.588Z,5084.00
2018-09-13T09:21:30.586Z,5168.00
2018-09-13T09:22:30.584Z,5468.00
2018-09-13T09:23:30.578Z,5788.00
2018-09-13T09:24:30.589Z,6108.00
2018-09-13T09:25:30.580Z,6352.00
2018-09-13T09:26:30.573Z,6296.00
2018-09-13T09:27:30.572Z,5960.00
2018-09-13T09:28:30.570Z,5668.00
2018-09-13T09:29:30.565Z,5644.00
2018-09-13T09:30:30.565Z,5772.00
2018-09-13T09:31:30.693Z,5900.00
2018-09-13T09:32:30.561Z,5932.00
2018-09-13T09:33:30.558Z,5872.00
2018-09-13T09:34:30.558Z,5612.00
2018-09-13T09:35:30.583Z,5356.00
2018-09-13T09:36:30.554Z,5112.00
2018-09-13T09:37:30.550Z,4836.00
2018-09-13T09:38:30.551Z,4544.00
2018-09-13T09:39:30.551Z,4284.00
2018-09-13T09:40:30.595Z,4096.00
2018-09-13T09:41:30.544Z,3952.00
2018-09-13T09:42:30.547Z,3884.00
2018-09-13T09:43:30.541Z,3896.00
2018-09-13T09:44:30.539Z,3980.00
2018-09-13T09:45:30.536Z,4092.00
2018-09-13T09:46:30.533Z,4172.00
2018-09-13T09:47:30.620Z,4244.00
2018-09-13T09:48:30.531Z,4316.00
2018-09-13T09:49:30.529Z,4372.00
2018-09-13T09:50:30.579Z,4396.00
2018-09-13T09:51:30.525Z,4400.00
2018-09-13T09:52:30.585Z,4360.00
2018-09-13T09:53:30.523Z,4328.00
2018-09-13T09:54:30.651Z,4324.00
2018-09-13T09:55:30.518Z,4328.00
2018-09-13T09:56:30.529Z,4304.00
2018-09-13T09:57:31.167Z,4344.00
2018-09-13T09:58:30.513Z,4300.00
2018-09-13T09:59:30.510Z,4240.00
2018-09-13T10:00:30.513Z,4220.00
2018-09-13T10:01:30.513Z,4204.00
2018-09-13T10:02:30.509Z,4192.00
2018-09-13T10:03:30.639Z,4148.00
2018-09-13T10:04:30.538Z,3980.00
2018-09-13T10:05:30.501Z,3868.00
2018-09-13T10:06:30.499Z,3944.00
2018-09-13T10:07:30.496Z,3972.00
2018-09-13T10:08:30.494Z,3968.00
2018-09-13T10:09:30.543Z,4048.00
2018-09-13T10:10:30.490Z,4208.00
2018-09-13T10:11:30.489Z,4212.00
2018-09-13T10:12:30.486Z,4184.00
2018-09-13T10:13:30.531Z,4164.00
2018-09-13T10:14:30.485Z,4172.00
2018-09-13T10:15:30.480Z,4104.00
2018-09-13T10:16:30.487Z,4028.00
2018-09-13T10:17:30.528Z,3980.00
2018-09-13T10:18:30.479Z,3976.00
2018-09-13T10:19:30.477Z,4020.00
2018-09-13T10:20:30.473Z,4072.00
2018-09-13T10:21:30.610Z,4112.00
2018-09-13T10:22:30.471Z,4132.00
2018-09-13T10:23:30.468Z,4160.00
2018-09-13T10:24:30.468Z,4204.00
2018-09-13T10:25:30.468Z,4296.00
2018-09-13T10:26:30.462Z,4492.00
2018-09-13T10:27:30.464Z,4752.00
2018-09-13T10:28:30.493Z,4980.00
2018-09-13T10:29:30.527Z,5168.00
2018-09-13T10:30:30.459Z,5304.00
2018-09-13T10:31:30.456Z,5372.00
2018-09-13T10:32:30.909Z,5444.00
2018-09-13T10:33:30.461Z,5612.00
2018-09-13T10:34:30.450Z,5876.00
2018-09-13T10:35:30.448Z,6084.00
2018-09-13T10:36:30.448Z,6212.00
2018-09-13T10:37:30.448Z,6288.00
2018-09-13T10:38:30.443Z,6340.00
2018-09-13T10:39:30.450Z,6376.00
2018-09-13T10:40:30.453Z,6348.00
2018-09-13T10:41:30.496Z,6264.00
2018-09-13T10:42:30.440Z,6200.00
2018-09-13T10:43:30.438Z,6156.00
2018-09-13T10:44:30.436Z,6092.00
2018-09-13T10:45:30.435Z,5972.00
2018-09-13T10:46:30.434Z,5800.00
2018-09-13T10:47:30.476Z,5608.00
2018-09-13T10:48:30.429Z,5392.00
2018-09-13T10:49:30.429Z,5072.00
2018-09-13T10:50:30.472Z,4880.00
2018-09-13T10:51:30.587Z,4736.00
2018-09-13T10:52:30.474Z,4584.00
2018-09-13T10:53:30.424Z,4420.00
2018-09-13T10:54:30.498Z,4288.00
2018-09-13T10:55:30.504Z,4404.00
2018-09-13T10:56:30.419Z,4660.00
2018-09-13T10:57:30.419Z,4828.00
2018-09-13T10:58:30.420Z,4860.00
2018-09-13T10:59:30.414Z,4748.00
2018-09-13T11:00:30.414Z,4560.00
2018-09-13T11:01:30.413Z,4260.00
2018-09-13T11:02:30.413Z,4128.00
2018-09-13T11:03:30.409Z,4412.00
2018-09-13T11:04:30.462Z,4708.00
2018-09-13T11:05:30.439Z,4996.00
2018-09-13T11:06:30.409Z,5116.00
2018-09-13T11:07:30.404Z,5220.00
2018-09-13T11:08:30.401Z,5352.00
2018-09-13T11:09:30.403Z,5576.00
2018-09-13T11:10:30.423Z,5872.00
2018-09-13T11:11:30.398Z,6068.00
2018-09-13T11:12:30.396Z,6072.00
2018-09-13T11:13:30.394Z,5788.00
2018-09-13T11:14:30.427Z,5388.00
2018-09-13T11:15:30.393Z,5056.00
2018-09-13T11:16:30.396Z,4764.00
2018-09-13T11:17:30.397Z,4576.00
2018-09-13T11:18:30.394Z,4528.00
2018-09-13T11:19:30.388Z,4580.00
2018-09-13T11:20:30.386Z,4752.00
2018-09-13T11:21:30.387Z,5076.00
2018-09-13T11:22:30.383Z,5588.00
2018-09-13T11:23:30.382Z,6116.00
2018-09-13T11:24:30.413Z,6648.00
2018-09-13T11:25:30.380Z,7236.00
2018-09-13T11:26:30.380Z,7504.00
2018-09-13T11:27:30.375Z,7844.00
2018-09-13T11:28:30.375Z,8360.00
2018-09-13T11:29:30.372Z,8436.00
2018-09-13T11:30:30.407Z,8440.00
2018-09-13T11:31:30.380Z,8876.00
2018-09-13T11:32:30.368Z,9276.00
2018-09-13T11:33:30.366Z,9380.00
2018-09-13T11:34:30.368Z,9220.00
2018-09-13T11:35:30.367Z,9060.00
2018-09-13T11:36:30.365Z,8816.00
2018-09-13T11:37:30.362Z,8228.00
2018-09-13T11:38:30.365Z,7440.00
2018-09-13T11:39:30.591Z,7264.00
2018-09-13T11:40:30.469Z,7500.00
2018-09-13T11:41:30.359Z,7584.00
2018-09-13T11:42:30.354Z,7348.00
2018-09-13T11:43:30.355Z,6944.00
2018-09-13T11:44:30.354Z,6208.00
2018-09-13T11:45:30.353Z,5548.00
2018-09-13T11:46:30.350Z,5008.00
2018-09-13T11:47:30.356Z,4600.00
2018-09-13T11:48:30.352Z,4416.00
2018-09-13T11:49:30.350Z,4308.00
2018-09-13T11:50:30.348Z,4356.00
2018-09-13T11:51:30.348Z,4436.00
2018-09-13T11:52:30.347Z,4488.00
2018-09-13T11:53:30.380Z,4412.00
2018-09-13T11:54:30.347Z,4252.00
2018-09-13T11:55:30.344Z,4160.00
2018-09-13T11:56:30.352Z,4232.00
2018-09-13T11:57:30.340Z,4324.00
2018-09-13T11:58:30.341Z,4248.00
2018-09-13T11:59:30.351Z,4052.00
2018-09-13T12:00:30.338Z,3792.00
2018-09-13T12:01:30.346Z,3956.00
2018-09-13T12:02:30.336Z,3932.00
2018-09-13T12:03:30.354Z,3720.00
2018-09-13T12:04:30.333Z,3432.00
2018-09-13T12:05:30.333Z,3324.00
2018-09-13T12:06:30.348Z,3404.00
2018-09-13T12:07:30.330Z,3532.00
2018-09-13T12:08:30.331Z,3672.00
2018-09-13T12:09:30.389Z,4080.00
2018-09-13T12:10:30.329Z,4412.00
2018-09-13T12:11:30.327Z,4416.00
2018-09-13T12:12:30.424Z,4140.00
2018-09-13T12:13:30.325Z,4120.00
2018-09-13T12:14:30.325Z,4372.00
2018-09-13T12:15:30.321Z,4620.00
2018-09-13T12:16:30.319Z,4872.00
2018-09-13T12:17:30.321Z,5128.00
2018-09-13T12:18:30.393Z,5388.00
2018-09-13T12:19:30.322Z,5496.00
2018-09-13T12:20:30.321Z,5460.00
2018-09-13T12:21:30.316Z,5552.00
2018-09-13T12:22:30.422Z,5660.00
2018-09-13T12:23:30.312Z,5772.00
2018-09-13T12:24:30.308Z,6012.00
2018-09-13T12:25:31.133Z,6104.00
2018-09-13T12:26:30.309Z,6068.00
2018-09-13T12:27:30.375Z,6240.00
2018-09-13T12:28:30.307Z,6664.00
2018-09-13T12:29:30.308Z,6708.00
2018-09-13T12:30:30.306Z,6500.00
2018-09-13T12:31:30.331Z,6208.00
2018-09-13T12:32:31.142Z,5924.00
2018-09-13T12:33:30.306Z,5764.00